createdAt,value
2023-04-22T00:02:49.771Z,5.17
2023-04-22T00:05:51.531Z,5.00
2023-04-22T00:08:53.117Z,4.95
2023-04-22T00:11:54.628Z,4.60
2023-04-22T00:14:56.244Z,5.03
2023-04-22T00:17:58.263Z,4.35
2023-04-22T00:20:59.866Z,4.45
2023-04-22T00:24:01.441Z,5.13
2023-04-22T00:27:02.939Z,4.90
2023-04-22T00:30:05.191Z,5.30
2023-04-22T00:33:06.736Z,6.60
2023-04-22T00:36:08.364Z,6.90
2023-04-22T00:39:09.898Z,5.10
2023-04-22T00:42:11.398Z,4.70
2023-04-22T00:45:15.072Z,6.13
2023-04-22T00:48:16.530Z,5.15
2023-04-22T00:51:18.014Z,5.03
2023-04-22T00:54:19.651Z,4.13
2023-04-22T00:57:21.168Z,5.18
2023-04-22T01:00:27.118Z,7.33
2023-04-22T01:03:30.474Z,6.53
2023-04-22T01:06:32.458Z,7.47
2023-04-22T01:09:33.904Z,9.80
2023-04-22T01:12:35.398Z,41.23
2023-04-22T01:15:37.069Z,29.47
2023-04-22T01:18:38.589Z,27.65
2023-04-22T01:21:40.736Z,21.10
2023-04-22T01:24:42.240Z,22.90
2023-04-22T01:27:44.160Z,16.27
2023-04-22T01:30:45.748Z,13.00
2023-04-22T01:33:48.278Z,9.33
2023-04-22T01:36:50.411Z,8.63
2023-04-22T01:39:51.891Z,8.90
2023-04-22T01:42:53.332Z,8.77
2023-04-22T01:45:54.857Z,9.75
2023-04-22T01:48:56.294Z,8.33
2023-04-22T01:52:01.292Z,5.85
2023-04-22T01:55:02.751Z,6.93
2023-04-22T01:58:04.623Z,9.20
2023-04-22T02:01:06.738Z,12.45
2023-04-22T02:04:08.254Z,6.95
2023-04-22T02:07:09.763Z,15.20
2023-04-22T02:10:11.995Z,6.22
2023-04-22T02:13:13.475Z,4.72
2023-04-22T02:16:15.012Z,3.93
2023-04-22T02:19:16.529Z,4.20
2023-04-22T02:22:18.034Z,3.08
2023-04-22T02:25:19.696Z,3.25
2023-04-22T02:28:21.164Z,3.10
2023-04-22T02:31:22.752Z,3.65
2023-04-22T02:34:24.279Z,4.07
2023-04-22T02:37:25.751Z,5.03
2023-04-22T02:40:27.228Z,6.32
2023-04-22T02:43:29.014Z,4.53
2023-04-22T02:46:30.595Z,4.55
2023-04-22T02:49:32.104Z,4.70
2023-04-22T02:52:33.977Z,6.25
2023-04-22T02:55:35.506Z,3.70
2023-04-22T02:58:36.982Z,3.63
2023-04-22T03:01:38.560Z,3.33
2023-04-22T03:04:40.049Z,3.70
2023-04-22T03:07:41.616Z,3.80
2023-04-22T03:10:43.108Z,3.83
2023-04-22T03:13:44.565Z,4.27
2023-04-22T03:16:46.071Z,8.37
2023-04-22T03:19:47.704Z,10.50
2023-04-22T03:22:49.149Z,8.30
2023-04-22T03:25:50.959Z,10.80
2023-04-22T03:28:52.434Z,8.48
2023-04-22T03:31:53.984Z,8.00
2023-04-22T03:34:55.620Z,6.00
2023-04-22T03:37:57.095Z,7.57
2023-04-22T03:40:58.567Z,6.57
2023-04-22T03:44:01.813Z,5.57
2023-04-22T03:47:03.920Z,4.55
2023-04-22T03:50:06.136Z,4.05
2023-04-22T03:53:07.582Z,4.35
2023-04-22T03:56:09.100Z,4.18
2023-04-22T03:59:10.630Z,4.07
2023-04-22T04:02:12.172Z,3.95
2023-04-22T04:05:13.875Z,4.73
2023-04-22T04:08:15.903Z,4.50
2023-04-22T04:11:17.395Z,5.40
2023-04-22T04:14:18.859Z,5.13
2023-04-22T04:17:20.611Z,5.40
2023-04-22T04:20:22.695Z,6.38
2023-04-22T04:23:24.161Z,4.00
2023-04-22T04:26:27.508Z,3.90
2023-04-22T04:29:29.065Z,3.78
2023-04-22T04:32:34.301Z,2.90
2023-04-22T04:35:37.828Z,4.60
2023-04-22T04:38:39.483Z,5.25
2023-04-22T04:41:41.161Z,3.83
2023-04-22T04:44:42.685Z,7.13
2023-04-22T04:47:45.135Z,6.38
2023-04-22T04:53:48.593Z,5.63
2023-04-22T04:56:50.386Z,4.22
2023-04-22T04:59:51.940Z,3.25
2023-04-22T05:02:53.520Z,5.43
2023-04-22T05:05:55.066Z,3.27
2023-04-22T05:08:56.496Z,4.00
2023-04-22T05:11:57.974Z,4.47
2023-04-22T05:14:59.425Z,6.13
2023-04-22T05:18:00.935Z,4.35
2023-04-22T05:21:04.169Z,6.18
2023-04-22T05:24:05.840Z,5.60
2023-04-22T05:27:07.865Z,4.23
2023-04-22T05:30:09.739Z,6.35
2023-04-22T05:33:11.358Z,6.28
2023-04-22T05:36:12.853Z,7.30
2023-04-22T05:39:14.332Z,5.80
2023-04-22T05:42:15.945Z,5.07
2023-04-22T05:45:17.729Z,5.60
2023-04-22T05:48:19.242Z,5.22
2023-04-22T05:51:20.757Z,5.90
2023-04-22T05:54:22.213Z,7.57
2023-04-22T05:57:23.662Z,4.13
2023-04-22T06:00:25.100Z,6.32
2023-04-22T06:03:26.830Z,6.22
2023-04-22T06:06:28.472Z,5.32
2023-04-22T06:09:29.943Z,5.97
2023-04-22T06:12:32.811Z,6.57
2023-04-22T06:15:34.460Z,7.10
2023-04-22T06:18:37.880Z,6.22
2023-04-22T06:21:40.510Z,6.00
2023-04-22T06:24:41.969Z,7.68
2023-04-22T06:27:43.418Z,8.82
2023-04-22T06:30:44.908Z,7.13
2023-04-22T06:33:46.508Z,7.53
2023-04-22T06:36:47.951Z,7.47
2023-04-22T06:39:49.431Z,6.73
2023-04-22T06:42:50.867Z,6.45
2023-04-22T06:45:52.334Z,6.03
2023-04-22T06:48:53.783Z,6.57
2023-04-22T06:51:55.272Z,6.05
2023-04-22T06:54:56.760Z,6.17
2023-04-22T06:58:00.486Z,6.10
2023-04-22T07:01:01.959Z,6.13
2023-04-22T07:04:03.575Z,6.43
2023-04-22T07:07:05.157Z,6.40
2023-04-22T07:10:06.954Z,5.68
2023-04-22T07:13:08.400Z,6.40
2023-04-22T07:16:09.918Z,6.83
2023-04-22T07:19:11.523Z,6.78
2023-04-22T07:22:12.971Z,6.20
2023-04-22T07:25:14.425Z,7.05
2023-04-22T07:28:16.260Z,5.93
2023-04-22T07:31:17.758Z,5.50
2023-04-22T07:34:19.316Z,4.53
2023-04-22T07:37:21.996Z,5.43
2023-04-22T07:40:23.445Z,4.80
2023-04-22T07:43:24.930Z,4.72
2023-04-22T07:46:26.355Z,7.85
2023-04-22T07:49:27.867Z,6.72
2023-04-22T07:52:30.281Z,5.65
2023-04-22T07:55:31.908Z,6.20
2023-04-22T07:58:33.357Z,6.03
2023-04-22T08:01:34.815Z,6.25
2023-04-22T08:04:37.057Z,5.82
2023-04-22T08:07:38.585Z,6.28
2023-04-22T08:10:40.049Z,5.75
2023-04-22T08:13:41.768Z,5.45
2023-04-22T08:16:43.225Z,4.28
2023-04-22T08:19:45.232Z,4.20
2023-04-22T08:22:47.198Z,4.35
2023-04-22T08:25:48.764Z,4.68
2023-04-22T08:28:50.267Z,3.58
2023-04-22T08:31:51.701Z,3.50
2023-04-22T08:34:54.217Z,3.40
2023-04-22T08:37:59.144Z,3.28
2023-04-22T08:41:00.640Z,3.35
2023-04-22T08:44:02.100Z,3.20
2023-04-22T08:47:03.726Z,2.72
2023-04-22T08:50:06.304Z,2.95
2023-04-22T08:53:07.752Z,2.70
2023-04-22T08:56:09.207Z,3.15
2023-04-22T08:59:13.933Z,2.90
2023-04-22T09:02:21.941Z,2.78
2023-04-22T09:05:23.884Z,2.72
2023-04-22T09:08:26.584Z,3.45
2023-04-22T09:11:28.882Z,2.38
2023-04-22T09:14:30.328Z,2.70
2023-04-22T09:20:36.493Z,2.85
2023-04-22T09:29:51.484Z,3.70
2023-04-22T09:32:54.744Z,4.57
2023-04-22T09:35:56.290Z,2.70
2023-04-22T09:41:59.934Z,2.80
2023-04-22T09:45:02.161Z,3.15
2023-04-22T09:48:08.122Z,3.00
2023-04-22T09:51:19.078Z,2.72
2023-04-22T09:54:20.528Z,2.47
2023-04-22T09:57:22.028Z,2.97
2023-04-22T10:00:25.225Z,3.13
2023-04-22T10:03:26.709Z,2.75
2023-04-22T10:06:28.152Z,2.72
2023-04-22T10:09:29.638Z,3.13
2023-04-22T10:12:35.514Z,2.17
2023-04-22T10:15:42.296Z,2.20
2023-04-22T10:18:43.771Z,2.30
2023-04-22T10:24:47.599Z,2.42
2023-04-22T10:28:03.195Z,2.50
2023-04-22T10:31:21.367Z,2.53
2023-04-22T10:34:22.918Z,2.30
2023-04-22T10:40:25.894Z,2.00
2023-04-22T10:43:45.654Z,2.30
2023-04-22T10:46:50.212Z,2.40
2023-04-22T10:49:51.757Z,2.50
2023-04-22T10:56:03.020Z,2.30
2023-04-22T10:59:17.196Z,2.70
2023-04-22T11:02:19.124Z,3.00
2023-04-22T11:05:22.826Z,2.90
2023-04-22T11:08:25.693Z,2.80
2023-04-22T11:11:27.251Z,2.70
2023-04-22T11:17:34.233Z,2.38
2023-04-22T11:20:40.486Z,2.50
2023-04-22T11:23:52.867Z,2.58
2023-04-22T11:27:11.162Z,2.80
2023-04-22T11:30:17.580Z,3.60
2023-04-22T11:33:19.415Z,4.65
2023-04-22T11:36:22.195Z,3.55
2023-04-22T11:39:34.222Z,2.30
2023-04-22T11:42:36.921Z,2.72
2023-04-22T11:45:38.929Z,2.53
2023-04-22T11:48:42.640Z,2.80
2023-04-22T11:51:57.959Z,2.40
2023-04-22T11:55:04.645Z,2.58
2023-04-22T11:58:09.698Z,2.40
2023-04-22T12:01:15.803Z,4.97
2023-04-22T12:04:17.648Z,2.70
2023-04-22T12:07:19.364Z,4.10
2023-04-22T12:10:23.042Z,3.08
2023-04-22T12:13:32.989Z,8.80
2023-04-22T12:16:41.588Z,9.50
2023-04-22T12:19:49.380Z,2.88
2023-04-22T12:22:53.058Z,2.50
2023-04-22T12:25:56.786Z,2.55
2023-04-22T12:29:02.848Z,3.30
2023-04-22T12:32:04.892Z,3.08
2023-04-22T12:35:08.483Z,3.13
2023-04-22T12:38:12.839Z,3.13
2023-04-22T12:41:15.827Z,3.15
2023-04-22T12:44:17.673Z,2.92
2023-04-22T12:47:20.049Z,2.95
2023-04-22T12:50:21.754Z,2.88
2023-04-22T12:53:23.463Z,2.65
2023-04-22T12:56:27.612Z,2.38
2023-04-22T12:59:29.439Z,2.75
2023-04-22T13:02:31.252Z,3.00
2023-04-22T13:05:33.072Z,2.78
2023-04-22T13:08:36.954Z,2.70
2023-04-22T13:11:41.621Z,2.78
2023-04-22T13:14:43.449Z,2.55
2023-04-22T13:17:47.171Z,2.70
2023-04-22T13:20:52.328Z,2.60
2023-04-22T13:23:54.015Z,2.75
2023-04-22T13:26:56.141Z,2.45
2023-04-22T13:29:57.739Z,2.63
2023-04-22T13:32:59.333Z,2.30
2023-04-22T13:36:02.146Z,2.72
2023-04-22T13:39:06.756Z,2.60
2023-04-22T13:42:10.114Z,2.72
2023-04-22T13:45:25.098Z,3.55
2023-04-22T13:48:29.159Z,2.80
2023-04-22T13:51:32.249Z,3.00
2023-04-22T13:54:33.920Z,2.50
2023-04-22T13:57:35.549Z,2.42
2023-04-22T14:03:55.907Z,2.42
2023-04-22T14:06:58.956Z,2.40
2023-04-22T14:13:26.985Z,2.78
2023-04-22T14:16:31.226Z,2.85
2023-04-22T14:19:38.291Z,2.70
2023-04-22T14:22:50.914Z,3.15
2023-04-22T14:25:52.583Z,2.72
2023-04-22T14:28:54.227Z,2.60
2023-04-22T14:32:21.670Z,2.65
2023-04-22T14:35:23.373Z,2.75
2023-04-22T14:38:25.015Z,2.50
2023-04-22T14:41:26.520Z,4.35
2023-04-22T14:44:28.050Z,2.63
2023-04-22T14:47:30.275Z,2.97
2023-04-22T14:50:31.899Z,2.83
2023-04-22T14:53:34.113Z,2.65
2023-04-22T14:56:36.536Z,2.88
2023-04-22T14:59:38.370Z,2.53
2023-04-22T15:02:40.267Z,2.53
2023-04-22T15:05:42.474Z,2.90
2023-04-22T15:08:44.055Z,3.85
2023-04-22T15:14:50.030Z,4.78
2023-04-22T15:20:53.203Z,2.92
2023-04-22T15:26:56.776Z,2.50
2023-04-22T15:29:58.324Z,2.60
2023-04-22T15:32:59.948Z,2.00
2023-04-22T15:36:04.092Z,2.50
2023-04-22T15:39:05.828Z,2.40
2023-04-22T15:42:07.347Z,2.70
2023-04-22T15:45:18.270Z,2.38
2023-04-22T15:48:20.182Z,2.43
2023-04-22T15:51:24.043Z,2.53
2023-04-22T15:54:25.931Z,2.83
2023-04-22T15:57:34.519Z,3.33
2023-04-22T16:00:48.869Z,3.08
2023-04-22T16:03:57.708Z,2.90
2023-04-22T16:06:59.716Z,2.58
2023-04-22T16:10:10.558Z,2.47
2023-04-22T16:13:12.130Z,2.40
2023-04-22T16:16:27.603Z,3.08
2023-04-22T16:19:36.799Z,2.75
2023-04-22T16:22:49.623Z,2.40
2023-04-22T16:25:51.405Z,2.67
2023-04-22T16:32:00.195Z,2.25
2023-04-22T16:35:01.867Z,2.80
2023-04-22T16:38:07.075Z,2.92
2023-04-22T16:41:38.158Z,2.80
2023-04-22T16:44:54.665Z,2.97
2023-04-22T16:47:59.291Z,3.08
2023-04-22T16:51:04.238Z,3.03
2023-04-22T16:54:08.278Z,2.97
2023-04-22T16:57:12.859Z,3.03
2023-04-22T17:00:28.268Z,3.28
2023-04-22T18:02:25.870Z,5.28
2023-04-22T18:09:37.156Z,4.78
2023-04-22T18:13:26.886Z,5.40
2023-04-22T18:16:51.479Z,5.20
2023-04-22T18:20:16.829Z,4.82
2023-04-22T18:23:22.413Z,4.93
2023-04-22T18:26:26.742Z,5.28
2023-04-22T18:29:28.277Z,4.68
2023-04-22T18:32:36.098Z,4.93
2023-04-22T18:35:43.837Z,4.90
2023-04-22T18:38:49.489Z,4.80
2023-04-22T18:41:57.684Z,4.93
2023-04-22T18:46:07.333Z,5.53
2023-04-22T18:49:27.672Z,5.78
2023-04-22T18:52:44.635Z,5.40
2023-04-22T18:56:24.672Z,5.80
2023-04-22T19:33:31.088Z,6.32
2023-04-22T19:36:40.172Z,7.10
2023-04-22T19:40:01.347Z,7.20
2023-04-22T19:43:27.460Z,7.30
2023-04-22T19:46:41.398Z,7.03
2023-04-22T19:49:54.466Z,5.15
2023-04-22T19:53:39.717Z,4.78
2023-04-22T19:57:16.676Z,6.28
2023-04-22T20:00:55.376Z,6.00
2023-04-22T20:08:50.733Z,5.38
2023-04-22T20:12:35.514Z,5.47
2023-04-22T20:15:41.871Z,5.38
2023-04-22T20:28:05.780Z,5.85
2023-04-22T20:51:51.547Z,5.60
2023-04-22T20:58:16.689Z,5.90
2023-04-22T21:01:37.149Z,5.25
2023-04-22T21:04:39.257Z,5.15
2023-04-22T21:36:58.832Z,5.80
2023-04-22T21:53:57.904Z,6.28
2023-04-22T21:57:23.884Z,4.78
2023-04-22T22:04:53.452Z,5.57
2023-04-22T22:08:00.143Z,4.93
2023-04-22T22:11:27.523Z,4.75
2023-04-22T22:14:57.693Z,4.53
2023-04-22T22:18:07.785Z,4.97
2023-04-22T22:22:03.718Z,5.05
2023-04-22T22:25:07.445Z,4.70
2023-04-22T22:28:09.344Z,4.13
2023-04-22T22:31:10.870Z,4.53
2023-04-22T22:34:25.612Z,4.53
2023-04-22T22:37:27.226Z,3.83
2023-04-22T22:40:39.271Z,4.00
2023-04-22T22:47:40.333Z,4.55
2023-04-22T22:50:48.638Z,4.55
2023-04-22T22:59:49.521Z,4.13
2023-04-22T23:30:46.669Z,4.07
2023-04-22T23:33:52.051Z,4.75
2023-04-22T23:36:53.832Z,4.38
2023-04-22T23:39:55.570Z,4.72
2023-04-22T23:42:57.177Z,5.13
2023-04-22T23:45:58.861Z,5.10
2023-04-22T23:49:01.630Z,5.28
2023-04-22T23:52:03.351Z,5.50
2023-04-22T23:55:39.185Z,5.25
2023-04-22T23:58:51.407Z,5.28
